sensor_id;sensor_type;location;lat;lon;timestamp;P1;durP1;ratioP1;P2;durP2;ratioP2
68976;SDS011;56029;52.568;13.588;2022-12-24T00:02:13;15.32;;;6.57;;
68976;SDS011;56029;52.568;13.588;2022-12-24T00:04:39;15.65;;;6.80;;
68976;SDS011;56029;52.568;13.588;2022-12-24T00:07:05;16.08;;;6.45;;
68976;SDS011;56029;52.568;13.588;2022-12-24T00:09:30;16.73;;;6.90;;
68976;SDS011;56029;52.568;13.588;2022-12-24T00:11:56;15.67;;;7.13;;
68976;SDS011;56029;52.568;13.588;2022-12-24T00:14:22;15.52;;;6.55;;
68976;SDS011;56029;52.568;13.588;2022-12-24T00:16:47;15.43;;;6.40;;
68976;SDS011;56029;52.568;13.588;2022-12-24T00:19:13;15.33;;;6.37;;
68976;SDS011;56029;52.568;13.588;2022-12-24T00:21:39;16.23;;;6.45;;
68976;SDS011;56029;52.568;13.588;2022-12-24T00:24:04;15.30;;;6.30;;
68976;SDS011;56029;52.568;13.588;2022-12-24T00:26:31;14.30;;;6.28;;
68976;SDS011;56029;52.568;13.588;2022-12-24T00:28:57;15.68;;;6.38;;
68976;SDS011;56029;52.568;13.588;2022-12-24T00:31:23;17.13;;;7.00;;
68976;SDS011;56029;52.568;13.588;2022-12-24T00:33:49;16.88;;;6.63;;
68976;SDS011;56029;52.568;13.588;2022-12-24T00:36:14;14.30;;;6.23;;
68976;SDS011;56029;52.568;13.588;2022-12-24T00:38:40;16.98;;;7.03;;
68976;SDS011;56029;52.568;13.588;2022-12-24T00:41:07;15.02;;;6.18;;
68976;SDS011;56029;52.568;13.588;2022-12-24T00:43:55;13.23;;;6.15;;
68976;SDS011;56029;52.568;13.588;2022-12-24T00:46:22;15.60;;;6.27;;
68976;SDS011;56029;52.568;13.588;2022-12-24T00:48:48;16.20;;;6.28;;
68976;SDS011;56029;52.568;13.588;2022-12-24T00:51:13;16.33;;;6.55;;
68976;SDS011;56029;52.568;13.588;2022-12-24T00:53:39;14.57;;;6.30;;
68976;SDS011;56029;52.568;13.588;2022-12-24T00:56:05;15.82;;;6.88;;
68976;SDS011;56029;52.568;13.588;2022-12-24T00:58:31;17.60;;;6.60;;
68976;SDS011;56029;52.568;13.588;2022-12-24T01:00:57;15.30;;;6.37;;
68976;SDS011;56029;52.568;13.588;2022-12-24T01:03:23;16.77;;;6.68;;
68976;SDS011;56029;52.568;13.588;2022-12-24T01:05:58;16.77;;;6.60;;
68976;SDS011;56029;52.568;13.588;2022-12-24T01:08:24;15.55;;;6.75;;
68976;SDS011;56029;52.568;13.588;2022-12-24T01:10:49;15.77;;;6.87;;
68976;SDS011;56029;52.568;13.588;2022-12-24T01:13:15;19.33;;;7.30;;
68976;SDS011;56029;52.568;13.588;2022-12-24T01:15:40;16.20;;;6.90;;
68976;SDS011;56029;52.568;13.588;2022-12-24T01:18:06;17.13;;;7.33;;
68976;SDS011;56029;52.568;13.588;2022-12-24T01:20:31;16.92;;;6.90;;
68976;SDS011;56029;52.568;13.588;2022-12-24T01:22:57;19.23;;;7.50;;
68976;SDS011;56029;52.568;13.588;2022-12-24T01:25:23;19.97;;;8.13;;
68976;SDS011;56029;52.568;13.588;2022-12-24T01:27:48;18.20;;;7.13;;
68976;SDS011;56029;52.568;13.588;2022-12-24T01:30:14;18.07;;;7.07;;
68976;SDS011;56029;52.568;13.588;2022-12-24T01:32:39;17.10;;;7.20;;
68976;SDS011;56029;52.568;13.588;2022-12-24T01:35:05;16.20;;;6.88;;
68976;SDS011;56029;52.568;13.588;2022-12-24T01:37:31;16.30;;;6.35;;
68976;SDS011;56029;52.568;13.588;2022-12-24T01:39:57;13.87;;;6.20;;
68976;SDS011;56029;52.568;13.588;2022-12-24T01:42:44;17.38;;;7.07;;
68976;SDS011;56029;52.568;13.588;2022-12-24T01:48:11;20.25;;;8.05;;
68976;SDS011;56029;52.568;13.588;2022-12-24T01:50:44;18.80;;;7.00;;
68976;SDS011;56029;52.568;13.588;2022-12-24T01:53:10;19.92;;;7.90;;
68976;SDS011;56029;52.568;13.588;2022-12-24T01:55:38;21.17;;;8.18;;
68976;SDS011;56029;52.568;13.588;2022-12-24T01:58:04;20.02;;;7.93;;
68976;SDS011;56029;52.568;13.588;2022-12-24T02:00:32;18.83;;;7.80;;
68976;SDS011;56029;52.568;13.588;2022-12-24T02:02:57;19.55;;;7.47;;
68976;SDS011;56029;52.568;13.588;2022-12-24T02:05:26;20.90;;;8.43;;
68976;SDS011;56029;52.568;13.588;2022-12-24T02:07:55;21.07;;;7.93;;
68976;SDS011;56029;52.568;13.588;2022-12-24T02:10:22;20.10;;;7.78;;
68976;SDS011;56029;52.568;13.588;2022-12-24T02:12:48;20.17;;;8.65;;
68976;SDS011;56029;52.568;13.588;2022-12-24T02:15:16;18.40;;;7.47;;
68976;SDS011;56029;52.568;13.588;2022-12-24T02:18:01;17.97;;;7.70;;
68976;SDS011;56029;52.568;13.588;2022-12-24T02:26:37;20.13;;;8.13;;
68976;SDS011;56029;52.568;13.588;2022-12-24T02:32:02;19.30;;;8.10;;
68976;SDS011;56029;52.568;13.588;2022-12-24T02:34:56;19.15;;;7.90;;
68976;SDS011;56029;52.568;13.588;2022-12-24T02:37:31;18.35;;;7.75;;
68976;SDS011;56029;52.568;13.588;2022-12-24T02:42:41;19.90;;;7.88;;
68976;SDS011;56029;52.568;13.588;2022-12-24T02:45:19;18.57;;;7.83;;
68976;SDS011;56029;52.568;13.588;2022-12-24T02:47:48;18.25;;;8.23;;
68976;SDS011;56029;52.568;13.588;2022-12-24T02:50:15;19.02;;;8.18;;
68976;SDS011;56029;52.568;13.588;2022-12-24T02:52:43;19.33;;;8.32;;
68976;SDS011;56029;52.568;13.588;2022-12-24T02:55:13;20.35;;;8.25;;
68976;SDS011;56029;52.568;13.588;2022-12-24T02:57:53;17.63;;;7.80;;
68976;SDS011;56029;52.568;13.588;2022-12-24T03:11:52;17.20;;;7.70;;
68976;SDS011;56029;52.568;13.588;2022-12-24T03:14:23;17.65;;;7.05;;
68976;SDS011;56029;52.568;13.588;2022-12-24T03:16:50;16.33;;;7.80;;
68976;SDS011;56029;52.568;13.588;2022-12-24T03:19:16;18.90;;;7.50;;
68976;SDS011;56029;52.568;13.588;2022-12-24T03:21:42;17.73;;;7.30;;
68976;SDS011;56029;52.568;13.588;2022-12-24T03:24:08;16.02;;;7.18;;
68976;SDS011;56029;52.568;13.588;2022-12-24T03:26:34;18.52;;;7.47;;
68976;SDS011;56029;52.568;13.588;2022-12-24T03:29:05;14.70;;;6.65;;
68976;SDS011;56029;52.568;13.588;2022-12-24T03:31:39;16.90;;;7.37;;
68976;SDS011;56029;52.568;13.588;2022-12-24T03:34:06;16.98;;;7.20;;
68976;SDS011;56029;52.568;13.588;2022-12-24T03:36:31;18.93;;;6.70;;
68976;SDS011;56029;52.568;13.588;2022-12-24T03:38:57;17.15;;;7.00;;
68976;SDS011;56029;52.568;13.588;2022-12-24T03:41:22;16.13;;;6.97;;
68976;SDS011;56029;52.568;13.588;2022-12-24T03:43:48;15.13;;;6.45;;
68976;SDS011;56029;52.568;13.588;2022-12-24T03:46:13;16.27;;;6.77;;
68976;SDS011;56029;52.568;13.588;2022-12-24T03:48:39;16.60;;;6.70;;
68976;SDS011;56029;52.568;13.588;2022-12-24T03:51:04;15.93;;;7.03;;
68976;SDS011;56029;52.568;13.588;2022-12-24T03:53:47;15.95;;;6.95;;
68976;SDS011;56029;52.568;13.588;2022-12-24T03:56:12;15.03;;;7.00;;
68976;SDS011;56029;52.568;13.588;2022-12-24T03:58:38;16.42;;;6.65;;
68976;SDS011;56029;52.568;13.588;2022-12-24T04:01:04;16.50;;;6.60;;
68976;SDS011;56029;52.568;13.588;2022-12-24T04:03:30;16.45;;;7.18;;
68976;SDS011;56029;52.568;13.588;2022-12-24T04:06:06;15.77;;;6.80;;
68976;SDS011;56029;52.568;13.588;2022-12-24T04:08:34;16.08;;;6.80;;
68976;SDS011;56029;52.568;13.588;2022-12-24T04:11:00;15.50;;;6.45;;
68976;SDS011;56029;52.568;13.588;2022-12-24T04:13:28;16.52;;;6.85;;
68976;SDS011;56029;52.568;13.588;2022-12-24T04:16:00;18.47;;;7.07;;
68976;SDS011;56029;52.568;13.588;2022-12-24T04:18:28;16.73;;;7.47;;
68976;SDS011;56029;52.568;13.588;2022-12-24T04:20:53;16.00;;;7.27;;
68976;SDS011;56029;52.568;13.588;2022-12-24T04:23:19;16.92;;;7.55;;
68976;SDS011;56029;52.568;13.588;2022-12-24T04:25:45;17.27;;;7.03;;
68976;SDS011;56029;52.568;13.588;2022-12-24T04:28:11;15.77;;;6.80;;
68976;SDS011;56029;52.568;13.588;2022-12-24T04:30:37;16.98;;;6.82;;
68976;SDS011;56029;52.568;13.588;2022-12-24T04:33:04;15.32;;;6.40;;
68976;SDS011;56029;52.568;13.588;2022-12-24T04:35:30;17.00;;;6.72;;
68976;SDS011;56029;52.568;13.588;2022-12-24T04:37:55;15.33;;;6.67;;
68976;SDS011;56029;52.568;13.588;2022-12-24T04:40:21;14.77;;;6.50;;
68976;SDS011;56029;52.568;13.588;2022-12-24T04:42:46;16.08;;;6.93;;
68976;SDS011;56029;52.568;13.588;2022-12-24T04:45:12;16.03;;;6.67;;
68976;SDS011;56029;52.568;13.588;2022-12-24T04:47:37;15.57;;;6.90;;
68976;SDS011;56029;52.568;13.588;2022-12-24T04:50:03;15.40;;;6.47;;
68976;SDS011;56029;52.568;13.588;2022-12-24T04:52:28;15.03;;;6.57;;
68976;SDS011;56029;52.568;13.588;2022-12-24T04:54:54;15.10;;;6.50;;
68976;SDS011;56029;52.568;13.588;2022-12-24T04:57:20;15.07;;;6.27;;
68976;SDS011;56029;52.568;13.588;2022-12-24T04:59:45;14.88;;;6.20;;
68976;SDS011;56029;52.568;13.588;2022-12-24T05:02:11;16.17;;;6.53;;
68976;SDS011;56029;52.568;13.588;2022-12-24T05:04:36;16.23;;;6.70;;
68976;SDS011;56029;52.568;13.588;2022-12-24T05:07:02;14.50;;;6.23;;
68976;SDS011;56029;52.568;13.588;2022-12-24T05:09:28;14.70;;;6.35;;
68976;SDS011;56029;52.568;13.588;2022-12-24T05:11:53;14.20;;;5.60;;
68976;SDS011;56029;52.568;13.588;2022-12-24T05:14:19;15.23;;;6.43;;
68976;SDS011;56029;52.568;13.588;2022-12-24T05:16:44;14.30;;;5.83;;
68976;SDS011;56029;52.568;13.588;2022-12-24T05:19:12;16.88;;;6.22;;
68976;SDS011;56029;52.568;13.588;2022-12-24T05:21:38;15.53;;;6.60;;
68976;SDS011;56029;52.568;13.588;2022-12-24T05:24:04;15.70;;;6.90;;
68976;SDS011;56029;52.568;13.588;2022-12-24T05:26:49;15.77;;;6.85;;
68976;SDS011;56029;52.568;13.588;2022-12-24T05:29:20;15.77;;;6.80;;
68976;SDS011;56029;52.568;13.588;2022-12-24T05:31:45;15.93;;;6.78;;
68976;SDS011;56029;52.568;13.588;2022-12-24T05:34:12;16.30;;;6.93;;
68976;SDS011;56029;52.568;13.588;2022-12-24T05:36:39;18.30;;;8.00;;
68976;SDS011;56029;52.568;13.588;2022-12-24T05:39:05;18.58;;;7.18;;
68976;SDS011;56029;52.568;13.588;2022-12-24T05:41:32;15.57;;;6.90;;
68976;SDS011;56029;52.568;13.588;2022-12-24T05:43:57;15.43;;;6.50;;
68976;SDS011;56029;52.568;13.588;2022-12-24T05:46:23;17.30;;;6.82;;
68976;SDS011;56029;52.568;13.588;2022-12-24T05:48:50;14.85;;;6.88;;
68976;SDS011;56029;52.568;13.588;2022-12-24T05:51:17;15.90;;;7.30;;
68976;SDS011;56029;52.568;13.588;2022-12-24T05:53:44;17.15;;;6.93;;
68976;SDS011;56029;52.568;13.588;2022-12-24T05:56:11;15.50;;;6.80;;
68976;SDS011;56029;52.568;13.588;2022-12-24T05:58:40;16.67;;;7.55;;
68976;SDS011;56029;52.568;13.588;2022-12-24T06:01:07;16.70;;;7.53;;
68976;SDS011;56029;52.568;13.588;2022-12-24T06:03:34;17.10;;;8.00;;
68976;SDS011;56029;52.568;13.588;2022-12-24T06:06:00;16.33;;;6.97;;
68976;SDS011;56029;52.568;13.588;2022-12-24T06:08:28;16.83;;;7.03;;
68976;SDS011;56029;52.568;13.588;2022-12-24T06:10:58;17.55;;;7.43;;
68976;SDS011;56029;52.568;13.588;2022-12-24T06:13:25;16.83;;;7.70;;
68976;SDS011;56029;52.568;13.588;2022-12-24T06:15:54;16.02;;;7.20;;
68976;SDS011;56029;52.568;13.588;2022-12-24T06:18:21;15.82;;;7.35;;
68976;SDS011;56029;52.568;13.588;2022-12-24T06:20:50;16.80;;;7.47;;
68976;SDS011;56029;52.568;13.588;2022-12-24T06:23:20;18.45;;;6.70;;
68976;SDS011;56029;52.568;13.588;2022-12-24T06:25:46;16.73;;;7.43;;
68976;SDS011;56029;52.568;13.588;2022-12-24T06:28:12;15.30;;;6.72;;
68976;SDS011;56029;52.568;13.588;2022-12-24T06:30:39;17.88;;;7.20;;
68976;SDS011;56029;52.568;13.588;2022-12-24T06:33:04;15.45;;;7.30;;
68976;SDS011;56029;52.568;13.588;2022-12-24T06:35:31;15.87;;;7.33;;
68976;SDS011;56029;52.568;13.588;2022-12-24T06:37:57;15.85;;;7.00;;
68976;SDS011;56029;52.568;13.588;2022-12-24T06:40:23;16.60;;;7.57;;
68976;SDS011;56029;52.568;13.588;2022-12-24T06:42:48;20.60;;;8.33;;
68976;SDS011;56029;52.568;13.588;2022-12-24T06:45:14;18.13;;;8.90;;
68976;SDS011;56029;52.568;13.588;2022-12-24T06:47:39;18.07;;;8.73;;
68976;SDS011;56029;52.568;13.588;2022-12-24T06:50:05;17.87;;;7.13;;
68976;SDS011;56029;52.568;13.588;2022-12-24T06:52:31;17.75;;;7.55;;
68976;SDS011;56029;52.568;13.588;2022-12-24T06:54:56;16.07;;;7.13;;
68976;SDS011;56029;52.568;13.588;2022-12-24T06:57:22;16.80;;;7.38;;
68976;SDS011;56029;52.568;13.588;2022-12-24T06:59:47;17.83;;;7.37;;
68976;SDS011;56029;52.568;13.588;2022-12-24T07:02:13;18.90;;;7.77;;
68976;SDS011;56029;52.568;13.588;2022-12-24T07:04:38;17.35;;;7.55;;
68976;SDS011;56029;52.568;13.588;2022-12-24T07:07:04;16.47;;;7.40;;
68976;SDS011;56029;52.568;13.588;2022-12-24T07:09:30;16.03;;;7.60;;
68976;SDS011;56029;52.568;13.588;2022-12-24T07:11:55;16.27;;;7.90;;
68976;SDS011;56029;52.568;13.588;2022-12-24T07:14:21;17.90;;;8.30;;
68976;SDS011;56029;52.568;13.588;2022-12-24T07:16:46;16.77;;;7.60;;
68976;SDS011;56029;52.568;13.588;2022-12-24T07:19:12;18.07;;;7.73;;
68976;SDS011;56029;52.568;13.588;2022-12-24T07:21:38;19.23;;;8.45;;
68976;SDS011;56029;52.568;13.588;2022-12-24T07:24:04;19.07;;;8.20;;
68976;SDS011;56029;52.568;13.588;2022-12-24T07:26:29;20.50;;;8.23;;
68976;SDS011;56029;52.568;13.588;2022-12-24T07:28:55;19.23;;;8.50;;
68976;SDS011;56029;52.568;13.588;2022-12-24T07:31:20;20.33;;;8.48;;
68976;SDS011;56029;52.568;13.588;2022-12-24T07:33:46;18.33;;;8.67;;
68976;SDS011;56029;52.568;13.588;2022-12-24T07:36:17;17.77;;;7.97;;
68976;SDS011;56029;52.568;13.588;2022-12-24T07:38:44;17.83;;;8.05;;
68976;SDS011;56029;52.568;13.588;2022-12-24T07:41:10;20.17;;;8.47;;
68976;SDS011;56029;52.568;13.588;2022-12-24T07:43:36;17.70;;;7.77;;
68976;SDS011;56029;52.568;13.588;2022-12-24T07:46:02;17.88;;;8.07;;
68976;SDS011;56029;52.568;13.588;2022-12-24T07:48:28;18.77;;;8.47;;
68976;SDS011;56029;52.568;13.588;2022-12-24T07:50:54;20.90;;;9.05;;
68976;SDS011;56029;52.568;13.588;2022-12-24T07:53:21;18.67;;;8.30;;
68976;SDS011;56029;52.568;13.588;2022-12-24T07:55:47;20.20;;;9.00;;
68976;SDS011;56029;52.568;13.588;2022-12-24T07:58:12;19.77;;;8.68;;
68976;SDS011;56029;52.568;13.588;2022-12-24T08:00:38;17.57;;;8.47;;
68976;SDS011;56029;52.568;13.588;2022-12-24T08:03:04;19.58;;;8.95;;
68976;SDS011;56029;52.568;13.588;2022-12-24T08:05:33;17.57;;;8.23;;
68976;SDS011;56029;52.568;13.588;2022-12-24T08:08:00;18.20;;;7.53;;
68976;SDS011;56029;52.568;13.588;2022-12-24T08:10:25;17.63;;;8.00;;
68976;SDS011;56029;52.568;13.588;2022-12-24T08:12:51;18.27;;;8.43;;
68976;SDS011;56029;52.568;13.588;2022-12-24T08:15:17;20.17;;;8.33;;
68976;SDS011;56029;52.568;13.588;2022-12-24T08:17:43;17.93;;;7.70;;
68976;SDS011;56029;52.568;13.588;2022-12-24T08:20:09;19.45;;;8.45;;
68976;SDS011;56029;52.568;13.588;2022-12-24T08:22:35;18.25;;;8.43;;
68976;SDS011;56029;52.568;13.588;2022-12-24T08:25:01;19.43;;;8.73;;
68976;SDS011;56029;52.568;13.588;2022-12-24T08:27:26;20.90;;;9.83;;
68976;SDS011;56029;52.568;13.588;2022-12-24T08:29:52;20.48;;;9.95;;
68976;SDS011;56029;52.568;13.588;2022-12-24T08:32:17;20.63;;;9.20;;
68976;SDS011;56029;52.568;13.588;2022-12-24T08:34:43;22.77;;;9.90;;
68976;SDS011;56029;52.568;13.588;2022-12-24T08:37:08;20.33;;;9.02;;
68976;SDS011;56029;52.568;13.588;2022-12-24T08:39:34;21.33;;;8.73;;
68976;SDS011;56029;52.568;13.588;2022-12-24T08:41:59;21.10;;;9.30;;
68976;SDS011;56029;52.568;13.588;2022-12-24T08:44:25;20.63;;;9.47;;
68976;SDS011;56029;52.568;13.588;2022-12-24T08:46:50;24.80;;;11.93;;
68976;SDS011;56029;52.568;13.588;2022-12-24T08:49:16;31.67;;;17.13;;
68976;SDS011;56029;52.568;13.588;2022-12-24T08:51:42;27.55;;;13.18;;
68976;SDS011;56029;52.568;13.588;2022-12-24T08:54:07;25.33;;;11.20;;
68976;SDS011;56029;52.568;13.588;2022-12-24T08:56:33;23.13;;;9.90;;
68976;SDS011;56029;52.568;13.588;2022-12-24T08:58:59;20.20;;;9.17;;
68976;SDS011;56029;52.568;13.588;2022-12-24T09:01:25;22.70;;;9.82;;
68976;SDS011;56029;52.568;13.588;2022-12-24T09:03:50;21.67;;;9.27;;
68976;SDS011;56029;52.568;13.588;2022-12-24T09:06:16;19.27;;;8.87;;
68976;SDS011;56029;52.568;13.588;2022-12-24T09:08:42;20.60;;;9.23;;
68976;SDS011;56029;52.568;13.588;2022-12-24T09:11:09;21.83;;;9.98;;
68976;SDS011;56029;52.568;13.588;2022-12-24T09:13:37;22.05;;;9.38;;
68976;SDS011;56029;52.568;13.588;2022-12-24T09:16:03;22.33;;;9.85;;
68976;SDS011;56029;52.568;13.588;2022-12-24T09:18:29;21.50;;;9.83;;
68976;SDS011;56029;52.568;13.588;2022-12-24T09:21:01;20.35;;;9.23;;
68976;SDS011;56029;52.568;13.588;2022-12-24T09:23:28;19.50;;;8.63;;
68976;SDS011;56029;52.568;13.588;2022-12-24T09:25:54;19.73;;;8.77;;
68976;SDS011;56029;52.568;13.588;2022-12-24T09:28:20;20.43;;;8.70;;
68976;SDS011;56029;52.568;13.588;2022-12-24T09:30:56;17.88;;;8.77;;
68976;SDS011;56029;52.568;13.588;2022-12-24T09:33:23;19.17;;;8.77;;
68976;SDS011;56029;52.568;13.588;2022-12-24T09:35:52;18.23;;;8.37;;
68976;SDS011;56029;52.568;13.588;2022-12-24T09:38:18;18.80;;;8.50;;
68976;SDS011;56029;52.568;13.588;2022-12-24T09:40:44;19.75;;;8.65;;
68976;SDS011;56029;52.568;13.588;2022-12-24T09:43:14;20.73;;;9.67;;
68976;SDS011;56029;52.568;13.588;2022-12-24T09:48:43;21.27;;;9.27;;
68976;SDS011;56029;52.568;13.588;2022-12-24T09:51:19;19.63;;;9.00;;
68976;SDS011;56029;52.568;13.588;2022-12-24T09:53:52;19.00;;;8.93;;
68976;SDS011;56029;52.568;13.588;2022-12-24T09:56:25;20.85;;;8.80;;
68976;SDS011;56029;52.568;13.588;2022-12-24T09:58:58;19.73;;;9.20;;
68976;SDS011;56029;52.568;13.588;2022-12-24T10:01:27;19.65;;;8.68;;
68976;SDS011;56029;52.568;13.588;2022-12-24T10:03:54;18.00;;;8.48;;
68976;SDS011;56029;52.568;13.588;2022-12-24T10:06:26;18.50;;;8.30;;
68976;SDS011;56029;52.568;13.588;2022-12-24T10:11:38;17.60;;;7.78;;
68976;SDS011;56029;52.568;13.588;2022-12-24T10:14:30;19.77;;;9.00;;
68976;SDS011;56029;52.568;13.588;2022-12-24T10:17:18;21.38;;;8.52;;
68976;SDS011;56029;52.568;13.588;2022-12-24T10:31:10;20.00;;;9.32;;
68976;SDS011;56029;52.568;13.588;2022-12-24T10:33:37;20.23;;;9.83;;
68976;SDS011;56029;52.568;13.588;2022-12-24T10:36:08;19.98;;;9.85;;
68976;SDS011;56029;52.568;13.588;2022-12-24T10:38:43;22.73;;;9.82;;
68976;SDS011;56029;52.568;13.588;2022-12-24T10:41:09;19.97;;;9.23;;
68976;SDS011;56029;52.568;13.588;2022-12-24T10:43:37;22.70;;;10.68;;
68976;SDS011;56029;52.568;13.588;2022-12-24T10:46:05;21.10;;;9.30;;
68976;SDS011;56029;52.568;13.588;2022-12-24T10:48:41;20.25;;;9.48;;
68976;SDS011;56029;52.568;13.588;2022-12-24T10:54:18;21.17;;;8.77;;
68976;SDS011;56029;52.568;13.588;2022-12-24T10:56:46;19.77;;;8.80;;
68976;SDS011;56029;52.568;13.588;2022-12-24T10:59:27;21.05;;;9.18;;
68976;SDS011;56029;52.568;13.588;2022-12-24T11:01:56;19.88;;;8.80;;
68976;SDS011;56029;52.568;13.588;2022-12-24T11:04:24;19.92;;;9.13;;
68976;SDS011;56029;52.568;13.588;2022-12-24T11:06:55;19.50;;;9.17;;
68976;SDS011;56029;52.568;13.588;2022-12-24T11:09:33;18.98;;;8.90;;
68976;SDS011;56029;52.568;13.588;2022-12-24T11:12:02;21.65;;;9.38;;
68976;SDS011;56029;52.568;13.588;2022-12-24T11:14:32;21.70;;;9.57;;
68976;SDS011;56029;52.568;13.588;2022-12-24T11:17:00;21.10;;;8.90;;
68976;SDS011;56029;52.568;13.588;2022-12-24T11:19:33;20.37;;;9.83;;
68976;SDS011;56029;52.568;13.588;2022-12-24T11:22:04;21.38;;;8.70;;
68976;SDS011;56029;52.568;13.588;2022-12-24T11:24:32;22.05;;;9.63;;
68976;SDS011;56029;52.568;13.588;2022-12-24T11:29:52;22.23;;;10.18;;
68976;SDS011;56029;52.568;13.588;2022-12-24T11:35:21;23.15;;;10.05;;
68976;SDS011;56029;52.568;13.588;2022-12-24T11:37:48;21.10;;;9.52;;
68976;SDS011;56029;52.568;13.588;2022-12-24T11:40:40;21.88;;;9.85;;
68976;SDS011;56029;52.568;13.588;2022-12-24T11:43:14;20.85;;;9.85;;
68976;SDS011;56029;52.568;13.588;2022-12-24T11:50:54;23.58;;;10.55;;
68976;SDS011;56029;52.568;13.588;2022-12-24T11:53:22;22.77;;;10.52;;
68976;SDS011;56029;52.568;13.588;2022-12-24T11:55:52;22.10;;;10.10;;
68976;SDS011;56029;52.568;13.588;2022-12-24T11:58:28;22.13;;;10.30;;
68976;SDS011;56029;52.568;13.588;2022-12-24T12:03:52;24.17;;;11.40;;
68976;SDS011;56029;52.568;13.588;2022-12-24T12:06:41;26.98;;;11.63;;
68976;SDS011;56029;52.568;13.588;2022-12-24T12:09:12;27.38;;;13.85;;
68976;SDS011;56029;52.568;13.588;2022-12-24T12:11:45;33.80;;;18.60;;
68976;SDS011;56029;52.568;13.588;2022-12-24T12:14:19;29.65;;;13.95;;
68976;SDS011;56029;52.568;13.588;2022-12-24T12:17:00;28.52;;;13.80;;
68976;SDS011;56029;52.568;13.588;2022-12-24T12:22:17;25.58;;;11.50;;
68976;SDS011;56029;52.568;13.588;2022-12-24T12:24:52;25.20;;;11.03;;
68976;SDS011;56029;52.568;13.588;2022-12-24T12:30:00;25.50;;;10.93;;
68976;SDS011;56029;52.568;13.588;2022-12-24T12:32:43;25.15;;;11.15;;
68976;SDS011;56029;52.568;13.588;2022-12-24T12:35:17;23.95;;;11.10;;
68976;SDS011;56029;52.568;13.588;2022-12-24T12:37:56;24.93;;;10.47;;
68976;SDS011;56029;52.568;13.588;2022-12-24T12:40:31;23.38;;;11.00;;
68976;SDS011;56029;52.568;13.588;2022-12-24T12:43:22;23.85;;;10.57;;
68976;SDS011;56029;52.568;13.588;2022-12-24T12:46:19;23.85;;;10.73;;
68976;SDS011;56029;52.568;13.588;2022-12-24T12:51:53;23.57;;;10.13;;
68976;SDS011;56029;52.568;13.588;2022-12-24T12:57:02;19.75;;;9.35;;
68976;SDS011;56029;52.568;13.588;2022-12-24T12:59:34;21.98;;;9.95;;
68976;SDS011;56029;52.568;13.588;2022-12-24T13:10:49;25.23;;;11.45;;
68976;SDS011;56029;52.568;13.588;2022-12-24T13:21:47;29.10;;;14.30;;
68976;SDS011;56029;52.568;13.588;2022-12-24T13:24:15;25.58;;;12.13;;
68976;SDS011;56029;52.568;13.588;2022-12-24T13:35:21;21.35;;;9.70;;
68976;SDS011;56029;52.568;13.588;2022-12-24T13:37:45;20.70;;;8.98;;
68976;SDS011;56029;52.568;13.588;2022-12-24T13:40:13;19.85;;;9.45;;
68976;SDS011;56029;52.568;13.588;2022-12-24T13:48:39;25.20;;;13.55;;
68976;SDS011;56029;52.568;13.588;2022-12-24T13:50:55;21.63;;;10.73;;
68976;SDS011;56029;52.568;13.588;2022-12-24T13:53:37;21.67;;;10.68;;
68976;SDS011;56029;52.568;13.588;2022-12-24T13:56:07;21.92;;;11.15;;
68976;SDS011;56029;52.568;13.588;2022-12-24T13:58:42;18.07;;;9.13;;
68976;SDS011;56029;52.568;13.588;2022-12-24T14:01:14;20.65;;;9.80;;
68976;SDS011;56029;52.568;13.588;2022-12-24T14:03:52;19.38;;;9.98;;
68976;SDS011;56029;52.568;13.588;2022-12-24T14:06:22;21.23;;;9.57;;
68976;SDS011;56029;52.568;13.588;2022-12-24T14:08:51;23.95;;;10.82;;
68976;SDS011;56029;52.568;13.588;2022-12-24T14:11:21;19.30;;;9.70;;
68976;SDS011;56029;52.568;13.588;2022-12-24T14:13:54;19.38;;;9.63;;
68976;SDS011;56029;52.568;13.588;2022-12-24T14:16:40;22.17;;;11.20;;
68976;SDS011;56029;52.568;13.588;2022-12-24T14:21:40;19.25;;;9.88;;
68976;SDS011;56029;52.568;13.588;2022-12-24T14:24:13;18.77;;;8.67;;
68976;SDS011;56029;52.568;13.588;2022-12-24T14:26:46;18.58;;;9.20;;
68976;SDS011;56029;52.568;13.588;2022-12-24T14:29:16;22.75;;;11.90;;
68976;SDS011;56029;52.568;13.588;2022-12-24T14:31:50;21.25;;;11.02;;
68976;SDS011;56029;52.568;13.588;2022-12-24T14:34:17;19.33;;;10.02;;
68976;SDS011;56029;52.568;13.588;2022-12-24T14:36:42;20.07;;;9.70;;
68976;SDS011;56029;52.568;13.588;2022-12-24T14:39:10;19.40;;;9.90;;
68976;SDS011;56029;52.568;13.588;2022-12-24T14:41:51;20.10;;;10.45;;
68976;SDS011;56029;52.568;13.588;2022-12-24T14:44:38;22.17;;;10.57;;
68976;SDS011;56029;52.568;13.588;2022-12-24T14:47:07;20.63;;;10.43;;
68976;SDS011;56029;52.568;13.588;2022-12-24T14:56:12;20.20;;;9.90;;
68976;SDS011;56029;52.568;13.588;2022-12-24T14:58:40;17.60;;;9.77;;
68976;SDS011;56029;52.568;13.588;2022-12-24T15:01:18;21.38;;;10.77;;
68976;SDS011;56029;52.568;13.588;2022-12-24T15:03:43;19.17;;;10.18;;
68976;SDS011;56029;52.568;13.588;2022-12-24T15:06:09;21.52;;;10.68;;
68976;SDS011;56029;52.568;13.588;2022-12-24T15:08:38;20.25;;;10.00;;
68976;SDS011;56029;52.568;13.588;2022-12-24T15:11:13;21.23;;;10.07;;
68976;SDS011;56029;52.568;13.588;2022-12-24T15:13:42;19.58;;;9.13;;
68976;SDS011;56029;52.568;13.588;2022-12-24T15:16:11;20.23;;;9.80;;
68976;SDS011;56029;52.568;13.588;2022-12-24T15:18:44;20.23;;;9.55;;
68976;SDS011;56029;52.568;13.588;2022-12-24T15:21:18;21.17;;;10.70;;
68976;SDS011;56029;52.568;13.588;2022-12-24T15:24:22;23.90;;;10.97;;
68976;SDS011;56029;52.568;13.588;2022-12-24T15:26:50;31.60;;;10.32;;
68976;SDS011;56029;52.568;13.588;2022-12-24T15:29:20;28.73;;;10.70;;
68976;SDS011;56029;52.568;13.588;2022-12-24T15:31:57;25.58;;;8.70;;
68976;SDS011;56029;52.568;13.588;2022-12-24T15:34:35;28.42;;;10.52;;
68976;SDS011;56029;52.568;13.588;2022-12-24T15:37:09;24.70;;;9.45;;
68976;SDS011;56029;52.568;13.588;2022-12-24T15:39:40;23.02;;;7.68;;
68976;SDS011;56029;52.568;13.588;2022-12-24T15:42:07;22.70;;;5.73;;
68976;SDS011;56029;52.568;13.588;2022-12-24T15:44:56;21.83;;;6.43;;
68976;SDS011;56029;52.568;13.588;2022-12-24T15:47:29;21.77;;;6.55;;
68976;SDS011;56029;52.568;13.588;2022-12-24T15:50:15;19.80;;;6.18;;
68976;SDS011;56029;52.568;13.588;2022-12-24T15:52:48;21.02;;;5.93;;
68976;SDS011;56029;52.568;13.588;2022-12-24T16:01:00;20.73;;;7.63;;
68976;SDS011;56029;52.568;13.588;2022-12-24T16:03:27;22.48;;;6.55;;
68976;SDS011;56029;52.568;13.588;2022-12-24T16:06:00;21.90;;;7.37;;
68976;SDS011;56029;52.568;13.588;2022-12-24T16:08:35;22.52;;;8.82;;
68976;SDS011;56029;52.568;13.588;2022-12-24T16:16:30;22.30;;;7.07;;
68976;SDS011;56029;52.568;13.588;2022-12-24T16:19:00;23.38;;;7.07;;
68976;SDS011;56029;52.568;13.588;2022-12-24T16:24:04;25.10;;;7.55;;
68976;SDS011;56029;52.568;13.588;2022-12-24T16:26:37;25.23;;;6.40;;
68976;SDS011;56029;52.568;13.588;2022-12-24T16:29:04;21.97;;;5.83;;
68976;SDS011;56029;52.568;13.588;2022-12-24T16:31:34;23.38;;;6.55;;
68976;SDS011;56029;52.568;13.588;2022-12-24T16:34:01;18.40;;;5.70;;
68976;SDS011;56029;52.568;13.588;2022-12-24T16:36:29;21.73;;;6.15;;